sensor_id;sensor_type;location;lat;lon;timestamp;P1;P2;P0
30713;PMS7003;17465;47.934;33.430;2023-04-03T00:01:55;21.00;18.50;10.25
30713;PMS7003;17465;47.934;33.430;2023-04-03T00:04:26;23.50;21.25;13.25
30713;PMS7003;17465;47.934;33.430;2023-04-03T00:06:59;21.00;21.00;12.25
30713;PMS7003;17465;47.934;33.430;2023-04-03T00:09:30;17.00;15.25;9.25
30713;PMS7003;17465;47.934;33.430;2023-04-03T00:12:03;20.75;19.75;10.25
30713;PMS7003;17465;47.934;33.430;2023-04-03T00:14:34;7.25;4.50;3.50
30713;PMS7003;17465;47.934;33.430;2023-04-03T00:17:05;24.50;22.25;13.25
30713;PMS7003;17465;47.934;33.430;2023-04-03T00:19:37;21.75;21.00;11.75
30713;PMS7003;17465;47.934;33.430;2023-04-03T00:22:07;20.75;18.50;12.50
30713;PMS7003;17465;47.934;33.430;2023-04-03T00:24:38;19.75;19.25;10.50
30713;PMS7003;17465;47.934;33.430;2023-04-03T00:27:12;18.25;17.75;10.00
30713;PMS7003;17465;47.934;33.430;2023-04-03T00:29:47;15.50;13.25;7.50
30713;PMS7003;17465;47.934;33.430;2023-04-03T00:32:18;13.50;12.50;7.25
30713;PMS7003;17465;47.934;33.430;2023-04-03T00:34:48;14.25;12.25;6.75
30713;PMS7003;17465;47.934;33.430;2023-04-03T00:37:23;13.00;12.75;7.75
30713;PMS7003;17465;47.934;33.430;2023-04-03T00:39:54;13.50;12.75;5.25
30713;PMS7003;17465;47.934;33.430;2023-04-03T00:42:25;12.75;10.25;5.25
30713;PMS7003;17465;47.934;33.430;2023-04-03T00:47:29;13.25;13.00;6.00
30713;PMS7003;17465;47.934;33.430;2023-04-03T00:50:01;9.75;9.75;6.75
30713;PMS7003;17465;47.934;33.430;2023-04-03T00:52:33;11.25;11.25;7.00
30713;PMS7003;17465;47.934;33.430;2023-04-03T00:55:04;11.75;10.25;5.25
30713;PMS7003;17465;47.934;33.430;2023-04-03T00:57:37;11.75;11.75;7.00
30713;PMS7003;17465;47.934;33.430;2023-04-03T01:00:09;12.75;12.75;7.00
30713;PMS7003;17465;47.934;33.430;2023-04-03T01:02:41;13.75;13.50;7.00
30713;PMS7003;17465;47.934;33.430;2023-04-03T01:05:12;12.75;12.00;7.50
30713;PMS7003;17465;47.934;33.430;2023-04-03T01:07:45;10.25;9.75;5.25
30713;PMS7003;17465;47.934;33.430;2023-04-03T01:10:18;10.00;10.00;6.75
30713;PMS7003;17465;47.934;33.430;2023-04-03T01:12:49;10.50;10.00;5.25
30713;PMS7003;17465;47.934;33.430;2023-04-03T01:15:22;15.50;13.75;7.75
30713;PMS7003;17465;47.934;33.430;2023-04-03T01:17:54;14.25;13.75;8.00
30713;PMS7003;17465;47.934;33.430;2023-04-03T01:25:49;20.75;19.50;10.75
30713;PMS7003;17465;47.934;33.430;2023-04-03T01:28:31;35.25;26.75;13.75
30713;PMS7003;17465;47.934;33.430;2023-04-03T01:31:10;38.25;35.50;20.75
30713;PMS7003;17465;47.934;33.430;2023-04-03T01:33:51;46.00;38.25;22.75
30713;PMS7003;17465;47.934;33.430;2023-04-03T01:36:26;38.50;36.75;21.50
30713;PMS7003;17465;47.934;33.430;2023-04-03T01:38:58;33.25;32.25;15.75
30713;PMS7003;17465;47.934;33.430;2023-04-03T01:41:30;37.75;33.75;19.25
30713;PMS7003;17465;47.934;33.430;2023-04-03T01:44:00;34.25;30.00;19.00
30713;PMS7003;17465;47.934;33.430;2023-04-03T01:46:31;45.50;39.00;21.00
30713;PMS7003;17465;47.934;33.430;2023-04-03T01:49:02;40.50;37.25;22.50
30713;PMS7003;17465;47.934;33.430;2023-04-03T01:51:34;50.00;40.50;23.25
30713;PMS7003;17465;47.934;33.430;2023-04-03T01:54:05;49.50;41.00;24.50
30713;PMS7003;17465;47.934;33.430;2023-04-03T01:56:36;45.00;39.00;22.50
30713;PMS7003;17465;47.934;33.430;2023-04-03T01:59:07;45.75;38.75;23.25
30713;PMS7003;17465;47.934;33.430;2023-04-03T02:01:39;44.00;38.25;20.75
30713;PMS7003;17465;47.934;33.430;2023-04-03T02:04:10;43.50;36.50;22.75
30713;PMS7003;17465;47.934;33.430;2023-04-03T02:06:41;31.25;30.50;14.25
30713;PMS7003;17465;47.934;33.430;2023-04-03T02:09:11;42.25;38.00;21.25
30713;PMS7003;17465;47.934;33.430;2023-04-03T02:11:42;37.00;35.50;22.00
30713;PMS7003;17465;47.934;33.430;2023-04-03T02:14:13;40.00;37.00;22.00
30713;PMS7003;17465;47.934;33.430;2023-04-03T02:16:43;41.00;37.00;20.75
30713;PMS7003;17465;47.934;33.430;2023-04-03T02:19:14;23.50;22.50;8.25
30713;PMS7003;17465;47.934;33.430;2023-04-03T02:21:44;38.50;32.75;16.25
30713;PMS7003;17465;47.934;33.430;2023-04-03T02:24:15;35.25;31.75;19.00
30713;PMS7003;17465;47.934;33.430;2023-04-03T02:26:45;36.50;35.25;19.50
30713;PMS7003;17465;47.934;33.430;2023-04-03T02:29:16;34.50;31.75;18.75
30713;PMS7003;17465;47.934;33.430;2023-04-03T02:31:48;34.50;29.75;20.00
30713;PMS7003;17465;47.934;33.430;2023-04-03T02:34:19;39.25;30.50;15.00
30713;PMS7003;17465;47.934;33.430;2023-04-03T02:36:49;26.50;25.75;16.00
30713;PMS7003;17465;47.934;33.430;2023-04-03T02:39:20;34.25;31.00;16.25
30713;PMS7003;17465;47.934;33.430;2023-04-03T02:41:50;34.25;31.75;16.50
30713;PMS7003;17465;47.934;33.430;2023-04-03T02:44:20;31.75;28.50;13.00
30713;PMS7003;17465;47.934;33.430;2023-04-03T02:46:51;30.00;29.00;15.00
30713;PMS7003;17465;47.934;33.430;2023-04-03T02:49:21;30.50;29.50;14.00
30713;PMS7003;17465;47.934;33.430;2023-04-03T02:51:51;28.50;26.25;14.50
30713;PMS7003;17465;47.934;33.430;2023-04-03T02:54:22;37.00;30.00;15.25
30713;PMS7003;17465;47.934;33.430;2023-04-03T02:56:54;28.75;28.75;16.00
30713;PMS7003;17465;47.934;33.430;2023-04-03T02:59:24;37.75;33.50;20.00
30713;PMS7003;17465;47.934;33.430;2023-04-03T03:01:56;32.25;29.50;15.75
30713;PMS7003;17465;47.934;33.430;2023-04-03T03:04:26;29.00;26.00;15.00
30713;PMS7003;17465;47.934;33.430;2023-04-03T03:06:57;33.00;30.25;17.25
30713;PMS7003;17465;47.934;33.430;2023-04-03T03:09:28;35.00;32.50;18.00
30713;PMS7003;17465;47.934;33.430;2023-04-03T03:11:59;37.75;33.00;14.75
30713;PMS7003;17465;47.934;33.430;2023-04-03T03:14:30;31.50;28.75;15.00
30713;PMS7003;17465;47.934;33.430;2023-04-03T03:17:00;35.00;31.00;18.75
30713;PMS7003;17465;47.934;33.430;2023-04-03T03:19:30;36.25;34.25;18.25
30713;PMS7003;17465;47.934;33.430;2023-04-03T03:22:04;32.75;30.00;17.25
30713;PMS7003;17465;47.934;33.430;2023-04-03T03:24:35;27.75;27.25;15.50
30713;PMS7003;17465;47.934;33.430;2023-04-03T03:27:06;30.25;30.00;18.00
30713;PMS7003;17465;47.934;33.430;2023-04-03T03:29:37;27.75;27.25;13.25
30713;PMS7003;17465;47.934;33.430;2023-04-03T03:32:08;33.25;30.75;16.25
30713;PMS7003;17465;47.934;33.430;2023-04-03T03:34:39;39.00;35.75;19.25
30713;PMS7003;17465;47.934;33.430;2023-04-03T03:37:09;28.50;28.00;16.50
30713;PMS7003;17465;47.934;33.430;2023-04-03T03:39:41;29.00;28.25;14.50
30713;PMS7003;17465;47.934;33.430;2023-04-03T03:42:11;28.75;27.50;14.25
30713;PMS7003;17465;47.934;33.430;2023-04-03T03:44:43;31.75;29.25;15.50
30713;PMS7003;17465;47.934;33.430;2023-04-03T03:47:14;30.00;26.50;14.00
30713;PMS7003;17465;47.934;33.430;2023-04-03T03:49:44;29.00;29.00;15.25
30713;PMS7003;17465;47.934;33.430;2023-04-03T03:52:15;35.00;32.50;16.75
30713;PMS7003;17465;47.934;33.430;2023-04-03T03:54:45;30.00;27.00;16.75
30713;PMS7003;17465;47.934;33.430;2023-04-03T03:57:15;32.00;30.75;15.00
30713;PMS7003;17465;47.934;33.430;2023-04-03T03:59:49;29.00;28.00;16.75
30713;PMS7003;17465;47.934;33.430;2023-04-03T04:02:22;23.75;22.75;9.00
30713;PMS7003;17465;47.934;33.430;2023-04-03T04:04:55;27.50;25.75;14.50
30713;PMS7003;17465;47.934;33.430;2023-04-03T04:07:29;33.75;30.25;15.25
30713;PMS7003;17465;47.934;33.430;2023-04-03T04:09:56;29.50;27.00;14.25
30713;PMS7003;17465;47.934;33.430;2023-04-03T04:12:27;27.25;27.00;14.50
30713;PMS7003;17465;47.934;33.430;2023-04-03T04:14:57;33.75;29.50;17.00
30713;PMS7003;17465;47.934;33.430;2023-04-03T04:17:28;36.25;33.75;19.00
30713;PMS7003;17465;47.934;33.430;2023-04-03T04:20:20;30.00;28.50;17.75
30713;PMS7003;17465;47.934;33.430;2023-04-03T04:22:55;36.25;31.00;17.25
30713;PMS7003;17465;47.934;33.430;2023-04-03T04:25:27;57.75;47.75;28.00
30713;PMS7003;17465;47.934;33.430;2023-04-03T04:27:57;28.00;25.75;11.00
30713;PMS7003;17465;47.934;33.430;2023-04-03T04:30:28;38.50;35.25;19.75
30713;PMS7003;17465;47.934;33.430;2023-04-03T04:32:59;37.25;33.25;15.50
30713;PMS7003;17465;47.934;33.430;2023-04-03T04:35:30;31.25;27.50;12.25
30713;PMS7003;17465;47.934;33.430;2023-04-03T04:38:01;41.75;36.25;21.00
30713;PMS7003;17465;47.934;33.430;2023-04-03T04:40:33;33.75;31.25;21.00
30713;PMS7003;17465;47.934;33.430;2023-04-03T04:43:04;46.75;37.50;20.25
30713;PMS7003;17465;47.934;33.430;2023-04-03T04:45:34;46.25;38.75;23.25
30713;PMS7003;17465;47.934;33.430;2023-04-03T04:48:06;43.00;36.25;16.25
30713;PMS7003;17465;47.934;33.430;2023-04-03T04:50:40;44.75;38.75;23.00
30713;PMS7003;17465;47.934;33.430;2023-04-03T04:53:11;28.00;26.25;19.25
30713;PMS7003;17465;47.934;33.430;2023-04-03T04:55:41;39.25;35.50;20.50
30713;PMS7003;17465;47.934;33.430;2023-04-03T04:58:12;46.50;38.25;17.25
30713;PMS7003;17465;47.934;33.430;2023-04-03T05:00:43;32.75;28.00;9.00
30713;PMS7003;17465;47.934;33.430;2023-04-03T05:03:16;38.00;35.00;19.50
30713;PMS7003;17465;47.934;33.430;2023-04-03T05:05:47;34.00;28.75;16.25
30713;PMS7003;17465;47.934;33.430;2023-04-03T05:08:18;37.00;34.25;15.00
30713;PMS7003;17465;47.934;33.430;2023-04-03T05:10:48;30.75;28.75;16.00
30713;PMS7003;17465;47.934;33.430;2023-04-03T05:13:19;37.25;33.50;17.25
30713;PMS7003;17465;47.934;33.430;2023-04-03T05:15:50;28.50;27.00;12.00
30713;PMS7003;17465;47.934;33.430;2023-04-03T05:21:17;29.25;26.50;13.75
30713;PMS7003;17465;47.934;33.430;2023-04-03T05:23:48;37.00;30.75;16.50
30713;PMS7003;17465;47.934;33.430;2023-04-03T05:26:18;31.75;30.00;16.50
30713;PMS7003;17465;47.934;33.430;2023-04-03T05:28:49;27.50;24.50;13.00
30713;PMS7003;17465;47.934;33.430;2023-04-03T05:31:20;39.50;34.50;16.00
30713;PMS7003;17465;47.934;33.430;2023-04-03T05:33:50;36.00;34.75;18.00
30713;PMS7003;17465;47.934;33.430;2023-04-03T05:36:21;41.00;34.25;15.50
30713;PMS7003;17465;47.934;33.430;2023-04-03T05:38:52;26.75;23.50;7.75
30713;PMS7003;17465;47.934;33.430;2023-04-03T05:41:23;40.25;36.00;18.00
30713;PMS7003;17465;47.934;33.430;2023-04-03T05:44:00;42.50;38.75;20.25
30713;PMS7003;17465;47.934;33.430;2023-04-03T05:46:27;36.75;33.25;17.75
30713;PMS7003;17465;47.934;33.430;2023-04-03T05:48:58;41.75;37.75;21.00
30713;PMS7003;17465;47.934;33.430;2023-04-03T05:51:31;43.25;34.50;15.75
30713;PMS7003;17465;47.934;33.430;2023-04-03T05:54:38;37.25;34.00;19.00
30713;PMS7003;17465;47.934;33.430;2023-04-03T05:56:44;34.25;33.25;15.25
30713;PMS7003;17465;47.934;33.430;2023-04-03T05:59:15;43.50;36.50;23.00
30713;PMS7003;17465;47.934;33.430;2023-04-03T06:01:46;48.75;38.75;20.75
30713;PMS7003;17465;47.934;33.430;2023-04-03T06:04:17;47.00;39.50;22.25
30713;PMS7003;17465;47.934;33.430;2023-04-03T06:06:49;43.25;37.00;21.00
30713;PMS7003;17465;47.934;33.430;2023-04-03T06:09:29;49.25;40.00;21.50
30713;PMS7003;17465;47.934;33.430;2023-04-03T06:12:01;36.50;32.25;14.50
30713;PMS7003;17465;47.934;33.430;2023-04-03T06:14:31;46.50;38.25;22.75
30713;PMS7003;17465;47.934;33.430;2023-04-03T06:17:03;44.50;38.50;21.75
30713;PMS7003;17465;47.934;33.430;2023-04-03T06:19:42;46.00;39.00;23.00
30713;PMS7003;17465;47.934;33.430;2023-04-03T06:22:10;48.75;40.50;22.25
30713;PMS7003;17465;47.934;33.430;2023-04-03T06:24:41;53.00;41.75;24.75
30713;PMS7003;17465;47.934;33.430;2023-04-03T06:27:12;58.25;47.50;29.50
30713;PMS7003;17465;47.934;33.430;2023-04-03T06:29:43;54.75;45.75;28.00
30713;PMS7003;17465;47.934;33.430;2023-04-03T06:32:14;52.00;42.00;24.25
30713;PMS7003;17465;47.934;33.430;2023-04-03T06:34:45;56.75;43.75;28.00
30713;PMS7003;17465;47.934;33.430;2023-04-03T06:40:05;56.50;47.75;26.00
30713;PMS7003;17465;47.934;33.430;2023-04-03T06:42:38;52.25;42.00;24.25
30713;PMS7003;17465;47.934;33.430;2023-04-03T06:45:11;53.25;44.00;27.25
30713;PMS7003;17465;47.934;33.430;2023-04-03T06:47:43;47.75;42.00;24.25
30713;PMS7003;17465;47.934;33.430;2023-04-03T06:50:14;52.75;43.25;25.25
30713;PMS7003;17465;47.934;33.430;2023-04-03T06:52:47;46.00;41.00;25.75
30713;PMS7003;17465;47.934;33.430;2023-04-03T06:55:23;54.25;45.00;25.25
30713;PMS7003;17465;47.934;33.430;2023-04-03T06:57:56;46.25;36.75;20.25
30713;PMS7003;17465;47.934;33.430;2023-04-03T07:00:30;42.00;38.00;19.00
30713;PMS7003;17465;47.934;33.430;2023-04-03T07:03:01;44.75;38.25;21.50
30713;PMS7003;17465;47.934;33.430;2023-04-03T07:05:32;45.50;39.50;23.00
30713;PMS7003;17465;47.934;33.430;2023-04-03T07:08:06;41.25;36.75;20.00
30713;PMS7003;17465;47.934;33.430;2023-04-03T07:10:37;37.75;34.00;20.00
30713;PMS7003;17465;47.934;33.430;2023-04-03T07:13:08;43.25;36.75;20.25
30713;PMS7003;17465;47.934;33.430;2023-04-03T07:15:39;40.75;34.50;20.25
30713;PMS7003;17465;47.934;33.430;2023-04-03T07:18:09;29.75;28.50;18.75
30713;PMS7003;17465;47.934;33.430;2023-04-03T07:20:40;37.00;30.50;16.50
30713;PMS7003;17465;47.934;33.430;2023-04-03T07:23:11;36.00;32.00;17.50
30713;PMS7003;17465;47.934;33.430;2023-04-03T07:25:43;35.25;29.25;18.00
30713;PMS7003;17465;47.934;33.430;2023-04-03T07:28:18;38.50;35.00;19.75
30713;PMS7003;17465;47.934;33.430;2023-04-03T07:30:54;41.50;37.25;18.25
30713;PMS7003;17465;47.934;33.430;2023-04-03T07:33:51;44.00;37.00;20.50
30713;PMS7003;17465;47.934;33.430;2023-04-03T07:36:22;27.50;24.25;16.00
30713;PMS7003;17465;47.934;33.430;2023-04-03T07:38:53;42.25;35.00;21.50
30713;PMS7003;17465;47.934;33.430;2023-04-03T07:41:24;50.50;39.00;21.00
30713;PMS7003;17465;47.934;33.430;2023-04-03T07:43:54;37.75;34.25;21.50
30713;PMS7003;17465;47.934;33.430;2023-04-03T07:46:25;35.75;33.75;18.00
30713;PMS7003;17465;47.934;33.430;2023-04-03T07:48:55;39.75;35.75;17.50
30713;PMS7003;17465;47.934;33.430;2023-04-03T07:51:26;39.00;33.25;16.50
30713;PMS7003;17465;47.934;33.430;2023-04-03T07:53:57;44.25;36.25;18.50
30713;PMS7003;17465;47.934;33.430;2023-04-03T07:56:28;39.25;35.25;20.50
30713;PMS7003;17465;47.934;33.430;2023-04-03T07:58:59;44.00;37.25;18.50
30713;PMS7003;17465;47.934;33.430;2023-04-03T08:01:30;35.75;31.25;16.00
30713;PMS7003;17465;47.934;33.430;2023-04-03T08:04:01;43.00;37.25;19.25
30713;PMS7003;17465;47.934;33.430;2023-04-03T08:06:33;46.00;39.75;22.50
30713;PMS7003;17465;47.934;33.430;2023-04-03T08:09:06;51.50;41.75;23.00
30713;PMS7003;17465;47.934;33.430;2023-04-03T08:11:38;48.50;39.75;23.00
30713;PMS7003;17465;47.934;33.430;2023-04-03T08:14:09;40.00;35.75;19.00
30713;PMS7003;17465;47.934;33.430;2023-04-03T08:16:40;46.00;37.00;18.75
30713;PMS7003;17465;47.934;33.430;2023-04-03T08:19:13;43.75;36.75;22.75
30713;PMS7003;17465;47.934;33.430;2023-04-03T08:21:46;42.25;37.75;20.75
30713;PMS7003;17465;47.934;33.430;2023-04-03T08:24:16;39.25;34.50;19.75
30713;PMS7003;17465;47.934;33.430;2023-04-03T08:26:47;42.00;38.75;23.00
30713;PMS7003;17465;47.934;33.430;2023-04-03T08:29:17;47.25;40.75;22.00
30713;PMS7003;17465;47.934;33.430;2023-04-03T08:31:48;25.00;23.00;14.25
30713;PMS7003;17465;47.934;33.430;2023-04-03T08:34:20;32.75;31.50;16.50
30713;PMS7003;17465;47.934;33.430;2023-04-03T08:36:52;44.00;33.75;18.50
30713;PMS7003;17465;47.934;33.430;2023-04-03T08:39:22;38.75;37.00;17.00
30713;PMS7003;17465;47.934;33.430;2023-04-03T08:41:53;33.25;32.00;19.50
30713;PMS7003;17465;47.934;33.430;2023-04-03T08:47:33;41.75;38.00;22.25
30713;PMS7003;17465;47.934;33.430;2023-04-03T08:50:04;47.00;37.50;22.75
30713;PMS7003;17465;47.934;33.430;2023-04-03T08:52:50;41.25;36.50;20.75
30713;PMS7003;17465;47.934;33.430;2023-04-03T08:55:27;41.00;36.75;22.25
30713;PMS7003;17465;47.934;33.430;2023-04-03T08:58:03;33.50;31.00;18.75
30713;PMS7003;17465;47.934;33.430;2023-04-03T09:00:41;42.25;38.25;21.25
30713;PMS7003;17465;47.934;33.430;2023-04-03T09:03:24;37.75;35.25;19.25
30713;PMS7003;17465;47.934;33.430;2023-04-03T09:14:33;32.50;31.00;19.00
30713;PMS7003;17465;47.934;33.430;2023-04-03T09:17:13;36.00;33.25;19.50
30713;PMS7003;17465;47.934;33.430;2023-04-03T09:23:00;29.75;27.25;14.00
30713;PMS7003;17465;47.934;33.430;2023-04-03T09:25:35;26.00;23.00;12.75
30713;PMS7003;17465;47.934;33.430;2023-04-03T09:28:07;25.75;22.75;12.00
30713;PMS7003;17465;47.934;33.430;2023-04-03T09:30:40;31.25;27.25;18.00
30713;PMS7003;17465;47.934;33.430;2023-04-03T09:33:20;33.75;31.00;17.25
30713;PMS7003;17465;47.934;33.430;2023-04-03T09:35:48;32.50;29.75;15.50
30713;PMS7003;17465;47.934;33.430;2023-04-03T09:38:25;29.75;27.50;16.75
30713;PMS7003;17465;47.934;33.430;2023-04-03T09:41:04;31.75;29.00;16.50
30713;PMS7003;17465;47.934;33.430;2023-04-03T09:43:41;17.00;17.00;12.75
30713;PMS7003;17465;47.934;33.430;2023-04-03T09:49:02;27.00;25.00;14.75
30713;PMS7003;17465;47.934;33.430;2023-04-03T09:51:37;22.50;19.75;10.75
30713;PMS7003;17465;47.934;33.430;2023-04-03T09:54:25;20.75;19.75;11.50
30713;PMS7003;17465;47.934;33.430;2023-04-03T09:57:15;26.50;25.25;14.00
30713;PMS7003;17465;47.934;33.430;2023-04-03T10:00:35;22.50;22.50;13.00
30713;PMS7003;17465;47.934;33.430;2023-04-03T10:02:36;21.25;18.25;7.50
30713;PMS7003;17465;47.934;33.430;2023-04-03T10:05:37;27.50;23.25;14.50
30713;PMS7003;17465;47.934;33.430;2023-04-03T10:08:20;24.50;23.25;15.25
30713;PMS7003;17465;47.934;33.430;2023-04-03T10:11:10;26.25;24.00;14.75
30713;PMS7003;17465;47.934;33.430;2023-04-03T10:14:15;27.50;24.75;13.25
30713;PMS7003;17465;47.934;33.430;2023-04-03T10:16:49;23.75;22.75;14.00
30713;PMS7003;17465;47.934;33.430;2023-04-03T10:25:21;23.50;20.75;13.00
30713;PMS7003;17465;47.934;33.430;2023-04-03T10:28:01;19.25;17.75;10.75
30713;PMS7003;17465;47.934;33.430;2023-04-03T10:33:45;23.50;21.50;15.25
30713;PMS7003;17465;47.934;33.430;2023-04-03T10:36:33;24.75;21.00;11.00
30713;PMS7003;17465;47.934;33.430;2023-04-03T10:39:17;25.75;23.50;13.75
30713;PMS7003;17465;47.934;33.430;2023-04-03T10:44:48;24.50;23.50;13.50
30713;PMS7003;17465;47.934;33.430;2023-04-03T10:47:20;24.25;20.75;11.00
30713;PMS7003;17465;47.934;33.430;2023-04-03T10:55:51;29.75;26.75;15.25
30713;PMS7003;17465;47.934;33.430;2023-04-03T10:58:43;28.00;26.25;15.50
30713;PMS7003;17465;47.934;33.430;2023-04-03T11:03:54;24.75;21.50;14.50
30713;PMS7003;17465;47.934;33.430;2023-04-03T11:06:39;26.25;23.50;14.00
30713;PMS7003;17465;47.934;33.430;2023-04-03T11:09:16;28.00;25.25;13.25
30713;PMS7003;17465;47.934;33.430;2023-04-03T11:11:51;28.25;26.75;17.00
30713;PMS7003;17465;47.934;33.430;2023-04-03T11:14:26;35.50;29.00;17.75
30713;PMS7003;17465;47.934;33.430;2023-04-03T11:17:04;28.75;27.50;14.75
30713;PMS7003;17465;47.934;33.430;2023-04-03T11:22:51;30.50;29.25;18.50
30713;PMS7003;17465;47.934;33.430;2023-04-03T11:25:41;30.50;30.00;18.75
30713;PMS7003;17465;47.934;33.430;2023-04-03T11:28:19;33.75;32.25;18.75
30713;PMS7003;17465;47.934;33.430;2023-04-03T11:33:45;23.50;22.50;12.25
30713;PMS7003;17465;47.934;33.430;2023-04-03T11:39:00;26.75;24.75;14.50
30713;PMS7003;17465;47.934;33.430;2023-04-03T11:41:31;30.00;29.25;18.00
30713;PMS7003;17465;47.934;33.430;2023-04-03T11:44:04;22.75;20.25;12.00
30713;PMS7003;17465;47.934;33.430;2023-04-03T11:46:48;28.75;27.25;15.75
30713;PMS7003;17465;47.934;33.430;2023-04-03T12:01:10;29.75;23.50;15.50
30713;PMS7003;17465;47.934;33.430;2023-04-03T12:11:14;30.75;30.75;18.25
30713;PMS7003;17465;47.934;33.430;2023-04-03T12:14:03;24.75;24.00;8.75
30713;PMS7003;17465;47.934;33.430;2023-04-03T12:16:42;36.00;32.00;16.00
30713;PMS7003;17465;47.934;33.430;2023-04-03T12:22:05;37.00;32.00;19.25
30713;PMS7003;17465;47.934;33.430;2023-04-03T12:24:27;41.00;33.75;21.00
30713;PMS7003;17465;47.934;33.430;2023-04-03T12:27:04;36.75;33.00;21.00
30713;PMS7003;17465;47.934;33.430;2023-04-03T12:32:46;49.75;39.50;24.25
30713;PMS7003;17465;47.934;33.430;2023-04-03T12:41:18;47.50;38.75;23.50
30713;PMS7003;17465;47.934;33.430;2023-04-03T12:46:54;34.50;33.00;20.00
30713;PMS7003;17465;47.934;33.430;2023-04-03T12:49:30;40.25;35.50;21.75
30713;PMS7003;17465;47.934;33.430;2023-04-03T12:54:44;37.50;33.50;17.25
30713;PMS7003;17465;47.934;33.430;2023-04-03T12:59:44;32.00;29.75;18.00
30713;PMS7003;17465;47.934;33.430;2023-04-03T13:02:20;18.50;16.25;10.75
30713;PMS7003;17465;47.934;33.430;2023-04-03T13:04:58;34.50;31.50;18.50
30713;PMS7003;17465;47.934;33.430;2023-04-03T13:07:35;31.50;30.50;16.50
30713;PMS7003;17465;47.934;33.430;2023-04-03T13:12:48;30.75;26.25;14.75
30713;PMS7003;17465;47.934;33.430;2023-04-03T13:15:27;27.75;25.50;16.00
30713;PMS7003;17465;47.934;33.430;2023-04-03T13:18:00;33.25;31.25;17.25
30713;PMS7003;17465;47.934;33.430;2023-04-03T13:20:31;30.75;27.75;15.25
30713;PMS7003;17465;47.934;33.430;2023-04-03T13:23:05;31.75;29.50;14.25
30713;PMS7003;17465;47.934;33.430;2023-04-03T13:25:40;33.50;32.75;20.75
30713;PMS7003;17465;47.934;33.430;2023-04-03T13:28:12;26.75;26.00;16.00
30713;PMS7003;17465;47.934;33.430;2023-04-03T13:30:56;23.25;22.25;17.50
30713;PMS7003;17465;47.934;33.430;2023-04-03T13:33:26;31.00;30.25;16.75
30713;PMS7003;17465;47.934;33.430;2023-04-03T13:36:16;34.75;32.50;15.75
30713;PMS7003;17465;47.934;33.430;2023-04-03T13:41:47;27.50;24.25;13.00
30713;PMS7003;17465;47.934;33.430;2023-04-03T13:47:16;24.00;22.75;13.00
30713;PMS7003;17465;47.934;33.430;2023-04-03T13:50:14;24.50;24.00;13.75
30713;PMS7003;17465;47.934;33.430;2023-04-03T13:52:53;26.25;24.25;15.25
30713;PMS7003;17465;47.934;33.430;2023-04-03T13:58:26;21.50;19.00;8.00
30713;PMS7003;17465;47.934;33.430;2023-04-03T14:01:18;20.50;19.00;11.75
30713;PMS7003;17465;47.934;33.430;2023-04-03T14:03:56;21.00;19.25;13.25
30713;PMS7003;17465;47.934;33.430;2023-04-03T14:06:33;23.75;22.75;14.00
30713;PMS7003;17465;47.934;33.430;2023-04-03T14:09:04;24.75;22.75;12.75
30713;PMS7003;17465;47.934;33.430;2023-04-03T14:11:41;26.00;23.25;14.00
30713;PMS7003;17465;47.934;33.430;2023-04-03T14:14:13;21.75;21.75;11.75
30713;PMS7003;17465;47.934;33.430;2023-04-03T14:16:53;24.25;22.25;13.75
30713;PMS7003;17465;47.934;33.430;2023-04-03T14:21:57;25.75;24.25;14.25
30713;PMS7003;17465;47.934;33.430;2023-04-03T14:24:28;30.75;26.00;15.00
30713;PMS7003;17465;47.934;33.430;2023-04-03T14:27:16;24.00;22.75;13.75
30713;PMS7003;17465;47.934;33.430;2023-04-03T14:29:32;12.50;12.50;8.50
30713;PMS7003;17465;47.934;33.430;2023-04-03T14:32:03;33.50;28.50;16.00
30713;PMS7003;17465;47.934;33.430;2023-04-03T14:34:35;34.00;31.50;18.00
30713;PMS7003;17465;47.934;33.430;2023-04-03T14:37:11;31.25;28.75;20.50
30713;PMS7003;17465;47.934;33.430;2023-04-03T14:39:40;31.25;30.00;17.25
30713;PMS7003;17465;47.934;33.430;2023-04-03T14:42:13;28.00;27.25;14.75
30713;PMS7003;17465;47.934;33.430;2023-04-03T14:44:50;33.00;31.50;16.00
30713;PMS7003;17465;47.934;33.430;2023-04-03T14:47:25;32.00;32.00;17.25
30713;PMS7003;17465;47.934;33.430;2023-04-03T14:49:59;31.50;30.50;19.25
30713;PMS7003;17465;47.934;33.430;2023-04-03T14:52:33;33.75;29.50;17.00
30713;PMS7003;17465;47.934;33.430;2023-04-03T14:55:11;34.00;30.00;16.75
30713;PMS7003;17465;47.934;33.430;2023-04-03T14:57:36;35.50;33.00;19.75
30713;PMS7003;17465;47.934;33.430;2023-04-03T15:00:13;32.50;30.00;16.50
30713;PMS7003;17465;47.934;33.430;2023-04-03T15:02:47;35.50;33.00;20.25
30713;PMS7003;17465;47.934;33.430;2023-04-03T15:05:18;34.00;30.00;17.25
30713;PMS7003;17465;47.934;33.430;2023-04-03T15:07:50;32.00;31.50;19.00
30713;PMS7003;17465;47.934;33.430;2023-04-03T15:10:24;38.25;32.50;20.00
30713;PMS7003;17465;47.934;33.430;2023-04-03T15:12:57;34.25;30.75;18.75
30713;PMS7003;17465;47.934;33.430;2023-04-03T15:15:30;33.75;33.25;19.75
30713;PMS7003;17465;47.934;33.430;2023-04-03T15:18:10;37.50;34.50;21.00
30713;PMS7003;17465;47.934;33.430;2023-04-03T15:20:47;31.75;30.50;16.75
30713;PMS7003;17465;47.934;33.430;2023-04-03T15:23:19;31.50;31.50;18.50
30713;PMS7003;17465;47.934;33.430;2023-04-03T15:25:50;33.25;32.25;14.00
30713;PMS7003;17465;47.934;33.430;2023-04-03T15:28:30;35.75;33.75;18.50
30713;PMS7003;17465;47.934;33.430;2023-04-03T15:31:05;37.25;33.25;20.50
30713;PMS7003;17465;47.934;33.430;2023-04-03T15:33:38;33.00;32.00;19.50
30713;PMS7003;17465;47.934;33.430;2023-04-03T15:36:09;39.50;31.50;19.00
30713;PMS7003;17465;47.934;33.430;2023-04-03T15:38:41;44.50;37.00;22.00
30713;PMS7003;17465;47.934;33.430;2023-04-03T15:41:19;31.25;29.50;14.75
30713;PMS7003;17465;47.934;33.430;2023-04-03T15:43:50;40.75;32.50;18.00
30713;PMS7003;17465;47.934;33.430;2023-04-03T15:46:20;37.00;32.25;19.75
30713;PMS7003;17465;47.934;33.430;2023-04-03T15:48:54;33.25;31.00;18.75
30713;PMS7003;17465;47.934;33.430;2023-04-03T15:51:24;46.00;36.00;21.75
30713;PMS7003;17465;47.934;33.430;2023-04-03T15:53:54;37.50;34.00;20.00
30713;PMS7003;17465;47.934;33.430;2023-04-03T15:56:25;34.00;33.00;21.25
30713;PMS7003;17465;47.934;33.430;2023-04-03T15:58:55;41.25;37.00;21.25
30713;PMS7003;17465;47.934;33.430;2023-04-03T16:01:26;47.00;38.75;23.75
30713;PMS7003;17465;47.934;33.430;2023-04-03T16:03:58;41.50;35.75;21.75
30713;PMS7003;17465;47.934;33.430;2023-04-03T16:06:29;38.75;34.50;21.25